Time;durP1;ratioP1;P1;durP2;ratioP2;P2;SDS_P1;SDS_P2;PMS_P1;PMS_P2;Temp;Humidity;BMP_temperature;BMP_pressure;BME280_temperature;BME280_humidity;BME280_pressure;Samples;Min_cycle;Max_cycle;Signal;HPM_P1;HPM_P2
2022/06/07 00:00:27;;;;;;;;;1.00;1.00;;;;;21.48;47.60;101004.59;2108309;27;47973;-64
2022/06/07 00:01:28;;;;;;;;;0.00;0.00;;;;;21.49;47.70;101006.31;2102835;27;45896;-63
2022/06/07 00:02:30;;;;;;;;;1.00;1.00;;;;;21.49;48.23;101002.75;2105399;27;47441;-64
2022/06/07 00:03:31;;;;;;;;;0.50;0.50;;;;;21.50;47.92;101005.34;2096742;27;47830;-64
2022/06/07 00:04:32;;;;;;;;;1.00;1.00;;;;;21.52;47.94;101006.13;2096391;28;47302;-64
2022/06/07 00:05:34;;;;;;;;;0.75;0.75;;;;;21.50;48.03;100999.97;2105008;27;47564;-64
2022/06/07 00:06:34;;;;;;;;;2.25;1.75;;;;;21.51;47.71;101001.69;2102183;28;48202;-64
2022/06/07 00:07:35;;;;;;;;;0.67;0.67;;;;;21.51;48.04;100995.41;2094722;28;47549;-63
2022/06/07 00:08:35;;;;;;;;;2.00;2.00;;;;;21.52;48.20;100999.84;2095954;28;48258;-63
2022/06/07 00:09:36;;;;;;;;;2.00;2.00;;;;;21.52;48.05;101002.56;2098971;27;47616;-64
2022/06/07 00:10:37;;;;;;;;;1.33;1.33;;;;;21.50;48.15;100999.97;2096404;28;47268;-63
2022/06/07 00:11:37;;;;;;;;;0.00;0.00;;;;;21.50;47.89;100996.38;2094687;28;47440;-63
2022/06/07 00:12:38;;;;;;;;;1.67;0.67;;;;;21.50;48.41;101001.78;2095285;28;48291;-64
2022/06/07 00:13:39;;;;;;;;;2.00;1.00;;;;;21.49;47.99;101000.06;2109354;27;45831;-64
2022/06/07 00:14:39;;;;;;;;;0.67;0.67;;;;;21.48;48.29;101001.88;2105571;27;46814;-64
2022/06/07 00:15:41;;;;;;;;;1.00;1.00;;;;;21.49;48.14;101002.75;2102305;27;47454;-64
2022/06/07 00:16:42;;;;;;;;;1.50;1.50;;;;;21.48;48.19;101001.03;2096703;27;48169;-63
2022/06/07 00:17:42;;;;;;;;;0.00;0.00;;;;;21.47;48.75;100996.56;2100718;27;48056;-63
2022/06/07 00:18:43;;;;;;;;;0.00;0.00;;;;;21.46;48.67;101006.50;2096370;28;47557;-64
2022/06/07 00:19:43;;;;;;;;;0.33;0.33;;;;;21.45;48.96;100999.34;2096096;27;47508;-64
2022/06/07 00:20:44;;;;;;;;;0.33;0.33;;;;;21.43;49.08;100994.06;2096568;27;48705;-64
2022/06/07 00:21:44;;;;;;;;;0.33;0.33;;;;;21.42;48.52;100995.03;2096103;27;47428;-64
2022/06/07 00:22:45;;;;;;;;;1.00;1.00;;;;;21.43;48.79;101001.28;2096468;27;47467;-64
2022/06/07 00:23:45;;;;;;;;;1.00;1.00;;;;;21.42;48.86;100995.03;2088615;28;47550;-64
2022/06/07 00:24:46;;;;;;;;;4.00;3.00;;;;;21.41;49.06;100998.69;2090517;28;47568;-64
2022/06/07 00:25:50;;;;;;;;;5.33;3.00;;;;;21.40;49.17;100996.94;2097953;27;47643;-64
2022/06/07 00:26:51;;;;;;;;;0.00;0.00;;;;;21.39;48.81;100995.22;2096896;27;46680;-65
2022/06/07 00:27:51;;;;;;;;;0.00;0.00;;;;;21.38;49.36;100993.50;2104649;27;47925;-65
2022/06/07 00:28:52;;;;;;;;;0.67;0.67;;;;;21.36;49.56;100987.31;2103878;27;47672;-65
2022/06/07 00:29:52;;;;;;;;;0.00;0.00;;;;;21.35;49.42;100987.41;2104777;27;47291;-65
2022/06/07 00:30:53;;;;;;;;;0.67;0.00;;;;;21.33;49.66;100984.78;2104551;27;47427;-64
2022/06/07 00:31:54;;;;;;;;;0.00;0.00;;;;;21.32;49.53;100988.44;2111994;27;47638;-63
2022/06/07 00:32:55;;;;;;;;;0.25;0.25;;;;;21.31;49.28;100994.81;2105075;27;47247;-64
2022/06/07 00:33:56;;;;;;;;;0.33;0.33;;;;;21.30;49.83;100986.81;2098504;27;47861;-64
2022/06/07 00:34:56;;;;;;;;;0.00;0.00;;;;;21.28;49.98;100984.22;2098832;27;47106;-63
2022/06/07 00:35:56;;;;;;;;;0.00;0.00;;;;;21.28;50.13;100988.75;2113230;27;48160;-64
2022/06/07 00:36:57;;;;;;;;;0.00;0.00;;;;;21.27;49.62;100984.31;2093680;28;47731;-64
2022/06/07 00:37:58;;;;;;;;;1.00;1.00;;;;;21.26;50.23;100987.97;2088273;28;47818;-63
2022/06/07 00:38:58;;;;;;;;;0.00;0.00;;;;;21.25;50.06;100979.03;2104439;28;47555;-64
2022/06/07 00:39:59;;;;;;;;;1.67;1.67;;;;;21.25;49.87;100991.63;2100645;28;47602;-64
2022/06/07 00:40:59;;;;;;;;;0.00;0.00;;;;;21.24;49.88;100988.03;2096078;28;47501;-64
2022/06/07 00:42:00;;;;;;;;;0.00;0.00;;;;;21.23;50.08;100985.44;2098806;27;47764;-64
2022/06/07 00:43:00;;;;;;;;;0.67;0.67;;;;;21.23;50.52;100983.63;2088333;28;47488;-64
2022/06/07 00:44:25;;;;;;;;;0.00;0.00;;;;;21.22;50.39;100978.31;2087738;28;47505;-63
2022/06/07 00:45:26;;;;;;;;;0.00;0.00;;;;;21.20;50.25;100972.97;2099234;28;47636;-66
2022/06/07 00:46:26;;;;;;;;;0.00;0.00;;;;;21.19;50.42;100975.78;2104695;28;47448;-62
2022/06/07 00:47:29;;;;;;;;;1.00;1.00;;;;;21.18;50.28;100974.91;2104504;28;47994;-63
2022/06/07 00:48:29;;;;;;;;;0.00;0.00;;;;;21.16;50.67;100966.03;2104858;27;47605;-63
2022/06/07 00:49:34;;;;;;;;;0.00;0.00;;;;;21.14;50.36;100968.84;2104486;28;47424;-65
2022/06/07 00:51:02;;;;;;;;;0.00;0.00;;;;;21.14;50.89;100967.97;2104272;28;47852;-64
2022/06/07 00:52:02;;;;;;;;;0.25;0.25;;;;;21.12;50.71;100968.06;2096209;28;47754;-64
2022/06/07 00:53:05;;;;;;;;;0.00;0.00;;;;;21.10;50.80;100967.31;2100708;28;47776;-65
2022/06/07 00:54:05;;;;;;;;;0.00;0.00;;;;;21.10;50.43;100963.75;2104535;28;47856;-63
2022/06/07 00:55:08;;;;;;;;;0.33;0.33;;;;;21.09;50.57;100960.19;2096408;27;47597;-64
2022/06/07 00:56:08;;;;;;;;;0.50;0.25;;;;;21.11;50.67;100951.97;2099830;28;47997;-64
2022/06/07 00:57:09;;;;;;;;;1.00;1.00;;;;;21.07;51.31;100962.06;2104635;28;47538;-64
2022/06/07 00:58:09;;;;;;;;;0.00;0.00;;;;;21.07;51.07;100950.41;2104575;28;47982;-64
2022/06/07 00:59:10;;;;;;;;;0.00;0.00;;;;;21.05;50.75;100958.59;2104351;28;47627;-63
2022/06/07 01:00:13;;;;;;;;;1.00;1.00;;;;;21.03;50.73;100954.28;2103748;27;47507;-63
2022/06/07 01:01:14;;;;;;;;;1.00;1.00;;;;;21.03;50.97;100954.28;2104637;28;47770;-63
2022/06/07 01:02:15;;;;;;;;;1.00;1.00;;;;;21.02;51.63;100956.09;2104963;28;47743;-63
2022/06/07 01:03:15;;;;;;;;;0.33;0.33;;;;;21.00;51.58;100947.25;2095669;28;47474;-64
2022/06/07 01:04:16;;;;;;;;;0.00;0.00;;;;;21.00;51.06;100951.78;2095484;28;47588;-64
2022/06/07 01:05:17;;;;;;;;;1.00;0.67;;;;;20.99;51.05;100950.03;2104635;28;47370;-64
2022/06/07 01:11:34;;;;;;;;;0.75;0.75;;;;;20.99;51.36;100947.34;2104905;28;47527;-64
2022/06/07 01:12:35;;;;;;;;;1.00;1.00;;;;;20.98;51.70;100943.78;2104637;28;47636;-64
2022/06/07 01:13:36;;;;;;;;;1.25;1.25;;;;;20.98;51.60;100943.78;2106434;27;47819;-64
2022/06/07 01:14:37;;;;;;;;;0.00;0.00;;;;;20.97;51.86;100946.56;2106250;27;47529;-64
2022/06/07 01:15:37;;;;;;;;;0.00;0.00;;;;;20.96;51.39;100951.09;2100270;27;47591;-64
2022/06/07 01:16:38;;;;;;;;;1.00;1.00;;;;;20.96;51.68;100944.81;2098799;28;46662;-63
2022/06/07 01:17:38;;;;;;;;;0.33;0.33;;;;;20.94;51.86;100944.03;2097133;27;47727;-64
2022/06/07 01:18:38;;;;;;;;;0.00;0.00;;;;;20.92;52.34;100937.88;2105869;27;47965;-63
2022/06/07 01:19:39;;;;;;;;;1.67;1.67;;;;;20.90;51.97;100942.50;2104688;28;47551;-63
2022/06/07 01:20:40;;;;;;;;;1.00;1.00;;;;;20.90;51.95;100948.75;2098282;27;47384;-63
2022/06/07 01:21:41;;;;;;;;;1.00;0.75;;;;;20.89;51.73;100940.75;2099654;27;47806;-64
2022/06/07 01:22:42;;;;;;;;;3.00;2.00;;;;;20.89;52.37;100946.16;2096348;28;47528;-64
2022/06/07 01:23:43;;;;;;;;;0.00;0.00;;;;;20.88;52.05;100947.13;2097123;27;47304;-64
2022/06/07 01:24:44;;;;;;;;;0.00;0.00;;;;;20.88;51.80;100939.91;2104684;27;47607;-64
2022/06/07 01:25:45;;;;;;;;;0.75;0.25;;;;;20.89;52.70;100935.38;2104783;27;47968;-63
2022/06/07 01:26:45;;;;;;;;;0.33;0.33;;;;;20.87;52.53;100932.78;2109535;27;47267;-64
2022/06/07 01:27:46;;;;;;;;;0.67;0.67;;;;;20.88;52.22;100942.59;2111192;27;47601;-63
2022/06/07 01:28:46;;;;;;;;;4.67;1.67;;;;;20.87;52.49;100935.47;2104385;28;47760;-63
2022/06/07 01:29:47;;;;;;;;;0.00;0.00;;;;;20.86;52.45;100934.59;2104413;27;47386;-62
2022/06/07 01:30:47;;;;;;;;;0.00;0.00;;;;;20.86;52.53;100934.59;2104215;28;47218;-63
2022/06/07 01:31:48;;;;;;;;;1.00;1.00;;;;;20.86;52.17;100937.31;2102659;27;47962;-63
2022/06/07 01:32:48;;;;;;;;;1.75;1.25;;;;;20.85;52.19;100935.56;2103933;27;47164;-65
2022/06/07 01:33:49;;;;;;;;;1.67;0.67;;;;;20.85;52.38;100934.69;2095957;28;47815;-65
2022/06/07 01:34:50;;;;;;;;;2.33;1.33;;;;;20.86;52.43;100942.69;2102695;27;47528;-65
2022/06/07 01:36:11;;;;;;;;;0.33;0.33;;;;;20.86;52.59;100933.72;2103877;27;47559;-65
2022/06/07 01:37:15;;;;;;;;;1.25;1.25;;;;;20.86;52.12;100937.31;2095624;28;47622;-65
2022/06/07 01:38:16;;;;;;;;;1.00;1.00;;;;;20.86;52.22;100937.31;2096022;27;47630;-62
2022/06/07 01:41:55;;;;;;;;;0.50;0.50;;;;;20.87;52.95;100930.06;2111682;27;48073;-62
2022/06/07 01:42:55;;;;;;;;;0.33;0.33;;;;;20.86;52.67;100933.72;2108300;27;48070;-63
2022/06/07 01:43:56;;;;;;;;;1.00;1.00;;;;;20.85;52.27;100932.88;2108631;27;47608;-62
2022/06/07 01:44:57;;;;;;;;;0.75;0.75;;;;;20.86;52.39;100937.31;2112768;27;47566;-63
2022/06/07 01:46:03;;;;;;;;;1.00;1.00;;;;;20.86;53.06;100934.59;2104387;27;47910;-62
2022/06/07 01:47:04;;;;;;;;;0.50;0.50;;;;;20.85;52.30;100932.88;2104246;28;47851;-62
2022/06/07 01:48:06;;;;;;;;;1.00;1.00;;;;;20.85;52.22;100932.00;2110712;27;47889;-63
2022/06/07 01:49:09;;;;;;;;;1.00;1.00;;;;;20.84;52.33;100931.13;2080578;28;48063;-63
2022/06/07 01:50:09;;;;;;;;;1.00;1.00;;;;;20.85;52.53;100932.00;2081687;28;47417;-63
2022/06/07 01:51:10;;;;;;;;;1.67;1.00;;;;;20.84;53.12;100933.84;2098010;27;47472;-63
2022/06/07 01:52:14;;;;;;;;;1.00;1.00;;;;;20.84;52.43;100925.75;2102769;27;47361;-63
2022/06/07 01:53:14;;;;;;;;;1.00;1.00;;;;;20.85;53.03;100934.69;2111135;27;47218;-63
2022/06/07 01:54:14;;;;;;;;;0.67;0.67;;;;;20.86;53.03;100933.72;2109367;27;47835;-63
2022/06/07 01:55:15;;;;;;;;;1.00;1.00;;;;;20.85;53.08;100932.00;2107026;27;47629;-62
2022/06/07 01:56:17;;;;;;;;;0.67;0.67;;;;;20.86;53.05;100936.44;2112833;27;47603;-62
2022/06/07 01:57:18;;;;;;;;;1.50;1.50;;;;;20.86;53.17;100929.19;2104105;27;47163;-63
2022/06/07 01:58:18;;;;;;;;;0.75;0.75;;;;;20.86;52.84;100929.19;2082018;28;48077;-62
2022/06/07 01:59:19;;;;;;;;;1.67;1.67;;;;;20.87;53.05;100930.06;2081127;28;46938;-62
2022/06/07 02:00:19;;;;;;;;;1.00;1.00;;;;;20.88;52.52;100933.63;2101921;27;48010;-62
2022/06/07 02:01:21;;;;;;;;;1.00;1.00;;;;;20.87;52.46;100927.38;2077874;28;47297;-62
2022/06/07 02:02:24;;;;;;;;;1.00;1.00;;;;;20.88;53.02;100926.41;2078284;28;47578;-62
2022/06/07 02:03:25;;;;;;;;;1.25;1.25;;;;;20.88;53.11;100914.75;2105920;28;47864;-62
2022/06/07 02:04:26;;;;;;;;;2.00;2.00;;;;;20.90;52.95;100918.22;2098108;27;47970;-63
2022/06/07 02:05:27;;;;;;;;;0.00;0.00;;;;;20.90;53.00;100920.91;2097115;27;48006;-63
2022/06/07 02:06:27;;;;;;;;;0.00;0.00;;;;;20.92;53.09;100927.94;2087355;28;47984;-62
2022/06/07 02:07:28;;;;;;;;;1.00;1.00;;;;;20.93;52.93;100918.88;2093569;28;47634;-63
2022/06/07 02:08:29;;;;;;;;;2.33;2.33;;;;;20.94;52.78;100917.94;2097037;27;47866;-63
2022/06/07 02:09:30;;;;;;;;;1.00;1.00;;;;;20.95;53.35;100918.78;2097433;28;47993;-62
2022/06/07 02:10:31;;;;;;;;;0.25;0.25;;;;;20.96;52.54;100920.53;2097299;27;47963;-63
2022/06/07 02:11:32;;;;;;;;;2.33;0.67;;;;;20.96;53.04;100910.63;2097203;28;47555;-63
2022/06/07 02:12:33;;;;;;;;;2.75;2.75;;;;;20.94;53.03;100912.53;2096599;27;48192;-62
2022/06/07 02:13:34;;;;;;;;;0.00;0.00;;;;;20.94;52.84;100909.81;2098496;27;47691;-63
2022/06/07 02:14:35;;;;;;;;;1.00;1.00;;;;;20.95;53.15;100908.88;2103323;27;45824;-64
2022/06/07 02:15:35;;;;;;;;;2.67;1.67;;;;;20.94;53.27;100908.97;2098873;28;47237;-64
2022/06/07 02:16:36;;;;;;;;;1.33;1.33;;;;;20.93;52.87;100907.22;2097122;28;45963;-63
2022/06/07 02:17:37;;;;;;;;;1.75;1.75;;;;;20.92;53.31;100910.91;2097210;28;47665;-63
2022/06/07 02:18:38;;;;;;;;;1.33;1.33;;;;;20.93;53.40;100909.94;2100643;27;47294;-63
2022/06/07 02:19:38;;;;;;;;;2.67;1.33;;;;;20.92;52.93;100908.19;2105606;27;47519;-64
2022/06/07 02:20:38;;;;;;;;;1.00;1.00;;;;;20.92;53.05;100908.19;2101743;27;48036;-63
2022/06/07 02:21:41;;;;;;;;;1.00;1.00;;;;;20.92;52.99;100903.66;2102425;28;47399;-62
2022/06/07 02:22:41;;;;;;;;;3.25;3.25;;;;;20.92;52.72;100905.50;2097045;28;47529;-62
2022/06/07 02:23:42;;;;;;;;;1.67;1.67;;;;;20.92;53.12;100897.41;2097087;27;47814;-62
2022/06/07 02:24:42;;;;;;;;;0.00;0.00;;;;;20.91;53.54;100898.38;2098595;27;47466;-63
2022/06/07 02:25:50;;;;;;;;;1.00;1.00;;;;;20.93;53.51;100904.53;2105822;28;47855;-63
2022/06/07 02:26:53;;;;;;;;;3.00;1.25;;;;;20.94;53.42;100900.88;2098850;28;48175;-63
2022/06/07 02:27:54;;;;;;;;;1.75;1.75;;;;;20.94;52.85;100888.25;2106199;27;47843;-63
2022/06/07 02:29:16;;;;;;;;;1.33;1.33;;;;;20.96;53.34;100890.84;2113157;27;47327;-62
2022/06/07 02:30:18;;;;;;;;;2.75;2.75;;;;;20.98;53.31;100888.94;2097221;28;47775;-62
2022/06/07 02:31:19;;;;;;;;;2.00;2.00;;;;;20.99;53.09;100894.25;2096852;27;47634;-63
2022/06/07 02:32:26;;;;;;;;;2.00;2.00;;;;;21.00;53.04;100892.41;2097261;27;47799;-62
2022/06/07 02:33:27;;;;;;;;;1.75;1.00;;;;;21.02;52.91;100890.47;2088026;28;47342;-62
2022/06/07 02:34:29;;;;;;;;;2.00;2.00;;;;;21.02;53.24;100893.19;2088394;28;47717;-63
2022/06/07 02:35:30;;;;;;;;;1.25;1.25;;;;;21.03;52.96;100889.50;2089435;28;47539;-62
2022/06/07 02:36:33;;;;;;;;;2.67;2.67;;;;;21.03;52.98;100890.38;2088370;28;47110;-62
2022/06/07 02:37:36;;;;;;;;;3.00;2.00;;;;;21.03;52.84;100893.09;2091699;28;47796;-63
2022/06/07 02:38:39;;;;;;;;;1.75;1.75;;;;;21.03;53.36;100887.69;2087286;28;47599;-62
2022/06/07 02:39:39;;;;;;;;;1.00;1.00;;;;;21.03;53.38;100893.09;2088791;28;47906;-62
2022/06/07 02:40:41;;;;;;;;;0.00;0.00;;;;;21.04;53.11;100888.56;2097220;27;47993;-63
2022/06/07 02:41:42;;;;;;;;;1.75;1.75;;;;;21.03;52.70;100890.38;2096912;28;47312;-62
2022/06/07 02:42:42;;;;;;;;;0.25;0.25;;;;;21.04;52.93;100886.72;2096758;27;47828;-62
2022/06/07 02:43:43;;;;;;;;;2.00;2.00;;;;;21.05;52.98;100891.16;2096999;28;46526;-62
2022/06/07 02:44:43;;;;;;;;;0.67;0.67;;;;;21.05;53.40;100891.16;2096916;28;47782;-62
2022/06/07 02:45:44;;;;;;;;;0.67;0.67;;;;;21.05;53.33;100883.06;2102560;27;47418;-62
2022/06/07 02:46:44;;;;;;;;;1.00;1.00;;;;;21.04;52.75;100884.03;2104815;28;47316;-62
2022/06/07 02:47:44;;;;;;;;;1.00;1.00;;;;;21.05;53.27;100890.28;2096903;28;48168;-62
2022/06/07 02:48:45;;;;;;;;;2.00;2.00;;;;;21.04;52.98;100888.56;2082271;28;47936;-62
2022/06/07 02:49:46;;;;;;;;;0.33;0.33;;;;;21.05;52.93;100882.19;2070196;28;47560;-62
2022/06/07 02:50:46;;;;;;;;;1.00;1.00;;;;;21.03;53.28;100873.31;2079238;28;47076;-64
2022/06/07 02:51:46;;;;;;;;;2.00;2.00;;;;;21.02;53.68;100868.91;2096484;27;47595;-63
2022/06/07 02:52:47;;;;;;;;;1.00;1.00;;;;;21.03;53.29;100871.50;2097433;28;48075;-62
2022/06/07 02:53:47;;;;;;;;;1.67;1.67;;;;;21.03;53.49;100873.31;2100742;28;47321;-64
2022/06/07 02:54:48;;;;;;;;;1.33;1.33;;;;;21.02;53.28;100871.59;2105272;27;48330;-62
2022/06/07 02:55:48;;;;;;;;;1.67;1.67;;;;;21.03;53.73;100868.78;2097106;27;47365;-63
2022/06/07 02:56:48;;;;;;;;;3.00;3.00;;;;;21.04;53.06;100872.34;2097291;27;47295;-62
2022/06/07 02:57:49;;;;;;;;;1.00;1.00;;;;;21.03;53.56;100871.50;2097156;28;47740;-64
2022/06/07 02:58:49;;;;;;;;;2.00;2.00;;;;;21.04;53.30;100866.97;2096702;28;47376;-63
2022/06/07 02:59:50;;;;;;;;;3.00;2.00;;;;;21.04;53.30;100867.81;2096645;28;47425;-63
2022/06/07 03:00:50;;;;;;;;;1.00;1.00;;;;;21.05;53.40;100868.69;2097463;28;47956;-63
2022/06/07 03:01:51;;;;;;;;;0.67;0.67;;;;;21.04;53.06;100864.25;2096783;28;47731;-63
2022/06/07 03:02:51;;;;;;;;;1.00;1.00;;;;;21.04;53.49;100870.53;2096887;27;47705;-63
2022/06/07 03:03:52;;;;;;;;;1.00;1.00;;;;;21.05;53.58;100861.47;2097315;28;48089;-63
2022/06/07 03:04:52;;;;;;;;;1.00;1.00;;;;;21.06;53.61;100862.34;2104430;27;45320;-63
2022/06/07 03:05:53;;;;;;;;;1.67;1.67;;;;;21.06;53.19;100867.72;2114612;27;45996;-63
2022/06/07 03:06:53;;;;;;;;;0.33;0.33;;;;;21.06;53.01;100860.50;2098553;27;48058;-63
2022/06/07 03:07:54;;;;;;;;;1.00;1.00;;;;;21.06;53.39;100857.81;2096783;27;47710;-63
2022/06/07 03:08:54;;;;;;;;;1.67;1.67;;;;;21.07;53.23;100864.06;2096474;28;45824;-63
2022/06/07 03:09:55;;;;;;;;;1.00;1.00;;;;;21.07;53.09;100858.66;2097022;28;47522;-63
2022/06/07 03:10:55;;;;;;;;;1.67;1.67;;;;;21.08;53.57;100865.78;2098060;27;47961;-63
2022/06/07 03:11:56;;;;;;;;;1.33;1.33;;;;;21.07;53.47;100864.06;2096964;28;47787;-62
2022/06/07 03:12:56;;;;;;;;;0.00;0.00;;;;;21.07;53.43;100856.84;2096469;27;47443;-63
2022/06/07 03:13:57;;;;;;;;;2.33;2.33;;;;;21.07;53.64;100861.38;2110429;27;47509;-62
2022/06/07 03:14:58;;;;;;;;;1.00;1.00;;;;;21.07;53.72;100855.97;2105286;27;47410;-62
2022/06/07 03:15:59;;;;;;;;;1.75;1.75;;;;;21.08;53.07;100855.88;2105363;27;46821;-62
2022/06/07 03:16:59;;;;;;;;;4.33;2.00;;;;;21.08;53.67;100853.16;2104974;28;47455;-62
2022/06/07 03:18:00;;;;;;;;;1.00;1.00;;;;;21.08;53.15;100857.69;2104971;27;48123;-64
2022/06/07 03:19:00;;;;;;;;;3.00;2.00;;;;;21.08;53.72;100855.88;2105510;27;45650;-63
2022/06/07 03:20:01;;;;;;;;;4.00;2.67;;;;;21.06;53.63;100860.50;2113863;27;47619;-63
2022/06/07 03:21:02;;;;;;;;;4.00;4.00;;;;;21.07;53.27;100850.56;2113470;27;47869;-63
2022/06/07 03:22:04;;;;;;;;;2.67;2.67;;;;;21.07;53.24;100859.53;2104605;27;47273;-63
2022/06/07 03:23:04;;;;;;;;;3.50;1.00;;;;;21.07;53.67;100855.97;2107916;27;45079;-62
2022/06/07 03:24:06;;;;;;;;;1.67;1.67;;;;;21.07;53.33;100864.94;2101678;27;46468;-64
2022/06/07 03:25:07;;;;;;;;;2.00;2.00;;;;;21.08;53.09;100855.00;2105917;27;48008;-64
2022/06/07 03:26:11;;;;;;;;;2.50;2.50;;;;;21.09;53.69;100854.94;2094343;28;47465;-63
2022/06/07 03:27:13;;;;;;;;;2.00;2.00;;;;;21.08;53.83;100855.88;2087764;28;48285;-63
2022/06/07 03:28:14;;;;;;;;;2.00;2.00;;;;;21.08;53.29;100855.88;2106060;27;48205;-64
2022/06/07 03:29:14;;;;;;;;;1.25;1.25;;;;;21.09;53.81;100856.75;2112994;27;47799;-63
2022/06/07 03:30:16;;;;;;;;;4.00;2.00;;;;;21.10;53.77;100861.19;2112936;27;47751;-63
2022/06/07 03:31:18;;;;;;;;;2.50;2.50;;;;;21.10;53.22;100853.09;2112153;27;47999;-62
2022/06/07 03:32:18;;;;;;;;;2.00;2.00;;;;;21.09;53.67;100857.63;2113645;27;47640;-62
2022/06/07 03:33:19;;;;;;;;;2.00;1.00;;;;;21.08;53.35;100847.78;2112152;27;47894;-63
2022/06/07 03:34:19;;;;;;;;;2.00;2.00;;;;;21.07;53.57;100854.13;2111190;27;47753;-63
2022/06/07 03:35:20;;;;;;;;;3.00;2.00;;;;;21.07;53.87;100855.97;2105127;27;47109;-61
2022/06/07 03:36:23;;;;;;;;;1.33;1.33;;;;;21.07;53.82;100859.53;2104994;27;48086;-62
2022/06/07 03:37:24;;;;;;;;;3.75;3.75;;;;;21.06;54.23;100852.41;2104785;27;47640;-62
2022/06/07 03:38:25;;;;;;;;;3.00;1.00;;;;;21.06;54.03;100856.94;2108662;27;47538;-62
2022/06/07 03:39:25;;;;;;;;;3.33;2.00;;;;;21.05;54.23;100853.38;2104388;27;47624;-61
2022/06/07 03:40:44;;;;;;;;;3.00;2.00;;;;;21.05;53.83;100852.50;2104898;28;47752;-62
2022/06/07 03:41:45;;;;;;;;;2.00;2.00;;;;;21.04;53.51;100865.13;2103640;27;48009;-62
2022/06/07 03:42:45;;;;;;;;;2.50;2.50;;;;;21.03;53.35;100852.59;2109703;27;47927;-64
2022/06/07 03:43:46;;;;;;;;;2.67;2.67;;;;;21.04;53.80;100859.72;2113014;27;45637;-62
2022/06/07 03:44:48;;;;;;;;;1.67;1.67;;;;;21.05;53.67;100858.78;2112882;27;47238;-63
2022/06/07 03:45:49;;;;;;;;;2.00;1.75;;;;;21.05;54.21;100861.47;2109033;27;47834;-64
2022/06/07 03:46:49;;;;;;;;;3.00;3.00;;;;;21.05;54.03;100860.59;2105251;28;47620;-64
2022/06/07 03:47:49;;;;;;;;;2.00;2.00;;;;;21.05;54.03;100856.06;2111460;27;47476;-63
2022/06/07 03:48:51;;;;;;;;;2.00;2.00;;;;;21.06;54.24;100859.63;2105606;27;48289;-63
2022/06/07 03:49:52;;;;;;;;;1.25;1.25;;;;;21.06;54.17;100863.19;2104994;28;47930;-64
2022/06/07 03:50:53;;;;;;;;;3.25;1.75;;;;;21.06;54.32;100857.81;2105510;27;47685;-64
2022/06/07 03:51:53;;;;;;;;;3.50;3.00;;;;;21.06;54.30;100862.34;2104400;27;47876;-63
2022/06/07 03:52:54;;;;;;;;;0.67;0.67;;;;;21.05;53.89;100864.16;2096435;27;47907;-64
2022/06/07 03:53:55;;;;;;;;;2.00;2.00;;;;;21.05;53.86;100863.28;2099817;27;47914;-64
2022/06/07 03:54:56;;;;;;;;;3.00;3.00;;;;;21.05;53.93;100869.56;2096863;28;47801;-63
2022/06/07 03:55:56;;;;;;;;;2.00;2.00;;;;;21.05;54.22;100866.00;2101626;28;46205;-64
2022/06/07 03:56:57;;;;;;;;;1.67;1.67;;;;;21.04;53.98;100866.97;2106465;27;47682;-63
2022/06/07 03:57:57;;;;;;;;;1.67;1.33;;;;;21.03;54.03;100867.94;2113619;27;47390;-64
2022/06/07 03:58:58;;;;;;;;;2.33;2.33;;;;;21.02;54.56;100867.06;2103042;27;47379;-64
2022/06/07 03:59:58;;;;;;;;;2.33;2.33;;;;;21.02;54.48;100863.50;2097520;27;47113;-62
2022/06/07 04:01:01;;;;;;;;;2.33;2.33;;;;;21.01;54.35;100867.16;2095574;28;47902;-64
2022/06/07 04:02:02;;;;;;;;;2.00;1.75;;;;;20.97;53.96;100861.09;2096002;28;47490;-63
2022/06/07 04:03:02;;;;;;;;;2.00;2.00;;;;;20.96;54.84;100859.38;2096418;27;48089;-63
2022/06/07 04:04:06;;;;;;;;;3.00;3.00;;;;;20.94;54.58;100852.31;2096664;28;47555;-63
2022/06/07 04:05:07;;;;;;;;;1.25;1.00;;;;;20.94;54.57;100868.50;2096588;27;47567;-63
2022/06/07 04:06:16;;;;;;;;;3.33;2.67;;;;;20.93;54.64;100862.22;2098272;28;48052;-63
2022/06/07 04:08:36;;;;;;;;;2.25;2.25;;;;;20.93;54.61;100859.53;2111251;27;47587;-64
2022/06/07 04:09:40;;;;;;;;;2.25;2.25;;;;;20.94;54.72;100868.50;2081742;28;47624;-63
2022/06/07 04:10:55;;;;;;;;;2.00;2.00;;;;;20.95;55.07;100864.84;2083880;27;47921;-64
2022/06/07 04:11:55;;;;;;;;;3.00;3.00;;;;;20.95;55.18;100864.84;2105162;28;47573;-64
2022/06/07 04:12:56;;;;;;;;;2.33;2.33;;;;;20.96;54.69;100869.25;2099536;28;47656;-63
2022/06/07 04:13:58;;;;;;;;;1.00;1.00;;;;;20.96;54.93;100861.16;2102339;28;47458;-64
2022/06/07 04:14:58;;;;;;;;;4.25;4.25;;;;;20.96;54.93;100864.75;2103075;27;47691;-63
2022/06/07 04:16:04;;;;;;;;;2.67;2.67;;;;;20.94;54.78;100866.66;2104212;28;47651;-63
2022/06/07 04:17:06;;;;;;;;;1.75;1.75;;;;;20.93;55.08;100864.06;2096310;28;48018;-64
2022/06/07 04:18:07;;;;;;;;;3.00;2.50;;;;;20.92;54.86;100865.03;2104264;28;47725;-64
2022/06/07 04:19:07;;;;;;;;;3.00;3.00;;;;;20.92;55.31;100859.63;2102599;27;47580;-64
2022/06/07 04:20:10;;;;;;;;;2.00;2.00;;;;;20.90;55.24;100862.44;2096576;28;47655;-64
2022/06/07 04:21:11;;;;;;;;;3.50;3.25;;;;;20.91;54.87;100868.69;2084476;28;47547;-62
2022/06/07 04:22:12;;;;;;;;;2.00;2.00;;;;;20.91;54.96;100864.16;2086662;28;48172;-64
2022/06/07 04:23:16;;;;;;;;;2.00;2.00;;;;;20.90;54.86;100862.44;2103269;28;47970;-63
2022/06/07 04:24:17;;;;;;;;;3.00;3.00;;;;;20.91;55.51;100861.47;2104027;27;45973;-64
2022/06/07 04:25:18;;;;;;;;;1.33;1.33;;;;;20.92;54.94;100868.59;2110326;27;47819;-63
2022/06/07 04:26:21;;;;;;;;;1.00;1.00;;;;;20.91;55.49;100866.88;2110517;27;47413;-63
2022/06/07 04:27:22;;;;;;;;;1.00;1.00;;;;;20.91;55.58;100857.91;2100007;28;47511;-63
2022/06/07 04:28:22;;;;;;;;;1.00;1.00;;;;;20.90;55.47;100862.44;2103878;28;47453;-63
2022/06/07 04:29:24;;;;;;;;;1.33;1.33;;;;;20.90;55.77;100854.34;2104668;28;47999;-63
2022/06/07 04:30:24;;;;;;;;;2.00;2.00;;;;;20.92;55.29;100870.44;2099651;28;47780;-63
2022/06/07 04:31:26;;;;;;;;;2.67;2.33;;;;;20.92;55.37;100865.91;2104851;28;48173;-63
2022/06/07 04:32:27;;;;;;;;;2.50;2.00;;;;;20.91;55.83;100872.25;2104701;28;48363;-63
2022/06/07 04:33:27;;;;;;;;;4.00;2.33;;;;;20.91;55.71;100874.97;2104945;28;47233;-64
2022/06/07 04:34:28;;;;;;;;;3.00;2.67;;;;;20.89;56.12;100870.63;2104576;28;47546;-63
2022/06/07 04:35:28;;;;;;;;;5.67;2.67;;;;;20.87;56.43;100870.72;2104786;28;47605;-64
2022/06/07 04:36:29;;;;;;;;;2.00;1.33;;;;;20.84;56.73;100869.09;2101724;28;47331;-65
2022/06/07 04:37:30;;;;;;;;;1.00;1.00;;;;;20.82;57.29;100876.38;2106540;27;47852;-63
2022/06/07 04:38:31;;;;;;;;;1.75;1.75;;;;;20.81;57.14;100868.38;2101948;28;47413;-63
2022/06/07 04:39:32;;;;;;;;;4.00;2.67;;;;;20.79;57.55;100873.00;2106669;27;47363;-62
2022/06/07 04:40:33;;;;;;;;;0.75;0.75;;;;;20.77;57.61;100866.84;2104514;28;47120;-61
2022/06/07 04:41:34;;;;;;;;;2.00;2.00;;;;;20.75;57.51;100869.66;2104539;28;47574;-62
2022/06/07 04:42:34;;;;;;;;;2.00;1.75;;;;;20.76;57.71;100865.13;2103150;28;47618;-62
2022/06/07 04:43:35;;;;;;;;;3.67;2.00;;;;;20.75;57.78;100863.38;2099823;28;47425;-62
2022/06/07 04:44:35;;;;;;;;;1.33;1.33;;;;;20.74;57.88;100867.91;2096095;28;47553;-64
2022/06/07 04:45:37;;;;;;;;;2.00;2.00;;;;;20.74;57.86;100862.53;2096356;28;48200;-62
2022/06/07 04:46:37;;;;;;;;;2.75;1.75;;;;;20.75;58.17;100864.25;2099730;28;47414;-62
2022/06/07 04:47:38;;;;;;;;;4.00;2.00;;;;;20.74;57.88;100865.22;2100474;28;47268;-63
2022/06/07 04:48:38;;;;;;;;;1.00;1.00;;;;;20.74;57.65;100865.22;2104175;27;47453;-63
2022/06/07 04:49:39;;;;;;;;;2.00;2.00;;;;;20.74;58.34;100862.53;2104105;28;47513;-63
2022/06/07 04:50:39;;;;;;;;;2.33;2.33;;;;;20.74;57.91;100873.31;2095507;28;47778;-62
2022/06/07 04:51:40;;;;;;;;;2.00;2.00;;;;;20.73;57.88;100860.78;2095852;28;47720;-64
2022/06/07 04:52:40;;;;;;;;;3.00;3.00;;;;;20.73;58.13;100863.50;2104828;28;47570;-63
2022/06/07 04:53:41;;;;;;;;;2.00;2.00;;;;;20.73;58.54;100870.72;2104701;28;47362;-62
2022/06/07 04:54:41;;;;;;;;;3.00;2.67;;;;;20.72;58.60;100861.75;2104741;28;47757;-62